createdAt,value
2023-02-22T00:00:23.078Z,8.04
2023-02-22T00:03:32.529Z,8.03
2023-02-22T00:06:37.882Z,8.06
2023-02-22T00:09:41.575Z,7.98
2023-02-22T00:12:45.451Z,7.97
2023-02-22T00:15:49.825Z,7.97
2023-02-22T00:18:53.888Z,7.94
2023-02-22T00:21:59.208Z,7.92
2023-02-22T00:25:03.127Z,7.92
2023-02-22T00:28:07.308Z,7.90
2023-02-22T00:31:11.110Z,7.93
2023-02-22T00:34:16.476Z,7.91
2023-02-22T00:37:22.210Z,7.93
2023-02-22T00:40:30.600Z,7.85
2023-02-22T00:43:34.482Z,7.86
2023-02-22T00:46:38.372Z,7.87
2023-02-22T00:49:42.151Z,7.90
2023-02-22T00:52:48.147Z,7.86
2023-02-22T00:55:52.455Z,7.89
2023-02-22T00:58:56.330Z,7.82
2023-02-22T01:02:00.242Z,7.76
2023-02-22T01:05:04.372Z,7.75
2023-02-22T01:08:14.352Z,7.78
2023-02-22T01:11:19.461Z,7.72
2023-02-22T01:14:23.903Z,7.70
2023-02-22T01:17:28.630Z,7.75
2023-02-22T01:20:33.948Z,7.70
2023-02-22T01:23:39.215Z,7.73
2023-02-22T01:26:43.431Z,7.68
2023-02-22T01:29:50.184Z,7.68
2023-02-22T01:32:54.035Z,7.75
2023-02-22T01:35:58.038Z,7.77
2023-02-22T01:39:03.534Z,7.66
2023-02-22T01:42:09.872Z,7.59
2023-02-22T01:45:44.408Z,7.71
2023-02-22T01:48:55.364Z,7.76
2023-02-22T01:52:04.370Z,7.67
2023-02-22T01:55:11.131Z,7.58
2023-02-22T01:58:17.776Z,7.54
2023-02-22T02:01:25.413Z,7.54
2023-02-22T02:04:30.237Z,7.51
2023-02-22T02:07:34.103Z,7.48
2023-02-22T02:10:39.501Z,7.43
2023-02-22T02:13:43.414Z,7.45
2023-02-22T02:16:53.467Z,7.42
2023-02-22T02:20:11.670Z,7.37
2023-02-22T02:24:13.397Z,7.36
2023-02-22T02:27:24.212Z,7.33
2023-02-22T02:31:06.407Z,7.36
2023-02-22T02:34:22.072Z,7.34
2023-02-22T02:37:41.763Z,7.20
2023-02-22T02:40:57.052Z,7.38
2023-02-22T02:44:11.476Z,7.31
2023-02-22T02:47:21.936Z,7.30
2023-02-22T02:50:33.276Z,7.22
2023-02-22T02:53:43.141Z,7.21
2023-02-22T02:56:48.155Z,7.30
2023-02-22T02:59:52.400Z,7.27
2023-02-22T03:03:18.331Z,7.29
2023-02-22T03:07:00.953Z,7.28
2023-02-22T03:10:44.968Z,7.23
2023-02-22T03:14:00.482Z,7.20
2023-02-22T03:17:16.684Z,7.18
2023-02-22T03:20:32.012Z,7.29
2023-02-22T03:23:46.918Z,7.26
2023-02-22T03:27:00.196Z,7.19
2023-02-22T03:30:13.205Z,7.12
2023-02-22T03:33:28.861Z,7.10
2023-02-22T03:36:39.196Z,7.11
2023-02-22T03:39:47.422Z,7.09
2023-02-22T03:42:59.346Z,7.06
2023-02-22T03:46:05.000Z,7.05
2023-02-22T03:49:15.999Z,7.00
2023-02-22T03:52:23.569Z,7.03
2023-02-22T03:55:31.491Z,7.02
2023-02-22T03:58:39.080Z,7.02
2023-02-22T04:01:43.247Z,7.04
2023-02-22T04:04:47.603Z,7.00
2023-02-22T04:07:51.502Z,7.06
2023-02-22T04:10:56.783Z,7.03
2023-02-22T04:14:00.906Z,7.01
2023-02-22T04:17:04.897Z,7.06
2023-02-22T04:20:09.547Z,7.00
2023-02-22T04:23:13.843Z,7.01
2023-02-22T04:26:19.366Z,7.00
2023-02-22T04:29:23.337Z,6.97
2023-02-22T04:32:27.241Z,6.96
2023-02-22T04:35:31.741Z,6.95
2023-02-22T04:38:36.362Z,6.88
2023-02-22T04:41:41.745Z,6.90
2023-02-22T04:44:45.862Z,6.86
2023-02-22T04:47:49.737Z,6.79
2023-02-22T04:50:53.544Z,6.72
2023-02-22T04:53:57.567Z,6.63
2023-02-22T04:57:02.946Z,6.60
2023-02-22T05:00:10.290Z,6.50
2023-02-22T05:03:15.492Z,6.45
2023-02-22T05:06:19.909Z,6.42
2023-02-22T05:09:23.928Z,6.34
2023-02-22T05:12:30.689Z,6.28
2023-02-22T05:15:34.501Z,6.23
2023-02-22T05:18:38.295Z,6.24
2023-02-22T05:21:42.121Z,6.21
2023-02-22T05:24:45.971Z,6.12
2023-02-22T05:27:53.747Z,6.09
2023-02-22T05:30:57.608Z,6.07
2023-02-22T05:34:01.469Z,6.01
2023-02-22T05:37:05.481Z,5.94
2023-02-22T05:40:10.396Z,5.93
2023-02-22T05:43:16.174Z,5.89
2023-02-22T05:46:19.988Z,5.83
2023-02-22T05:49:23.832Z,5.79
2023-02-22T05:52:27.805Z,5.75
2023-02-22T05:55:31.616Z,5.77
2023-02-22T05:58:37.131Z,5.77
2023-02-22T06:01:40.892Z,5.67
2023-02-22T06:04:46.566Z,5.63
2023-02-22T06:07:50.373Z,5.61
2023-02-22T06:10:54.611Z,5.58
2023-02-22T06:13:59.903Z,5.53
2023-02-22T06:17:05.544Z,5.58
2023-02-22T06:20:11.630Z,5.59
2023-02-22T06:23:15.542Z,5.60
2023-02-22T06:26:20.376Z,5.56
2023-02-22T06:29:25.700Z,5.50
2023-02-22T06:32:29.900Z,5.45
2023-02-22T06:35:33.715Z,5.45
2023-02-22T06:38:37.677Z,5.47
2023-02-22T06:41:42.611Z,5.45
2023-02-22T06:44:49.355Z,5.47
2023-02-22T06:47:53.735Z,5.47
2023-02-22T06:50:57.514Z,5.57
2023-02-22T06:54:01.313Z,5.53
2023-02-22T06:57:05.214Z,5.57
2023-02-22T07:00:12.867Z,5.68
2023-02-22T07:03:17.160Z,5.69
2023-02-22T07:06:21.139Z,5.78
2023-02-22T07:09:24.867Z,5.88
2023-02-22T07:12:28.733Z,6.04
2023-02-22T07:15:35.972Z,6.01
2023-02-22T07:18:39.883Z,5.97
2023-02-22T07:21:43.701Z,6.08
2023-02-22T07:24:47.995Z,6.11
2023-02-22T07:27:52.570Z,6.19
2023-02-22T07:30:57.904Z,6.26
2023-02-22T07:34:01.798Z,6.34
2023-02-22T07:37:05.675Z,6.35
2023-02-22T07:40:10.653Z,6.43
2023-02-22T07:43:20.071Z,6.44
2023-02-22T07:46:25.338Z,6.44
2023-02-22T07:49:29.225Z,6.40
2023-02-22T07:52:32.962Z,6.46
2023-02-22T07:55:36.896Z,6.55
2023-02-22T07:58:40.831Z,6.62
2023-02-22T08:01:46.445Z,6.56
2023-02-22T08:04:50.219Z,6.59
2023-02-22T08:07:54.247Z,6.60
2023-02-22T08:10:58.105Z,6.67
2023-02-22T08:14:01.938Z,6.73
2023-02-22T08:17:08.808Z,6.84
2023-02-22T08:20:13.273Z,6.72
2023-02-22T08:23:19.666Z,6.88
2023-02-22T08:26:25.505Z,6.85
2023-02-22T08:29:33.599Z,7.02
2023-02-22T08:32:38.942Z,7.09
2023-02-22T08:35:42.989Z,7.13
2023-02-22T08:38:46.864Z,7.25
2023-02-22T08:41:50.724Z,7.12
2023-02-22T08:44:54.481Z,7.15
2023-02-22T08:48:00.116Z,7.24
2023-02-22T08:51:04.163Z,7.29
2023-02-22T08:54:08.051Z,7.39
2023-02-22T08:57:11.853Z,7.55
2023-02-22T09:00:17.742Z,7.54
2023-02-22T09:03:23.312Z,7.53
2023-02-22T09:06:27.226Z,7.66
2023-02-22T09:09:31.035Z,7.71
2023-02-22T09:12:34.888Z,7.75
2023-02-22T09:15:40.028Z,7.76
2023-02-22T09:18:45.388Z,7.75
2023-02-22T09:21:55.027Z,7.76
2023-02-22T09:25:02.601Z,7.80
2023-02-22T09:28:11.761Z,7.87
2023-02-22T09:31:15.891Z,7.99
2023-02-22T09:34:28.688Z,8.07
2023-02-22T09:37:32.465Z,7.92
2023-02-22T09:40:45.258Z,7.80
2023-02-22T09:43:57.562Z,7.95
2023-02-22T09:47:01.441Z,7.92
2023-02-22T09:50:15.731Z,7.99
2023-02-22T09:53:30.623Z,8.08
2023-02-22T09:56:35.877Z,8.20
2023-02-22T09:59:46.913Z,8.31
2023-02-22T10:03:06.973Z,8.44
2023-02-22T10:06:17.044Z,8.62
2023-02-22T10:09:21.673Z,8.82
2023-02-22T10:12:36.899Z,9.04
2023-02-22T10:15:55.729Z,9.13
2023-02-22T10:19:19.673Z,9.16
2023-02-22T10:22:49.390Z,9.17
2023-02-22T10:26:00.457Z,9.07
2023-02-22T10:29:14.795Z,9.23
2023-02-22T10:32:28.581Z,9.16
2023-02-22T10:35:37.346Z,9.12
2023-02-22T10:38:55.372Z,9.12
2023-02-22T10:42:06.930Z,9.16
2023-02-22T10:45:25.727Z,9.21
2023-02-22T10:48:36.558Z,9.30
2023-02-22T10:51:40.548Z,9.29
2023-02-22T10:54:52.030Z,9.38
2023-02-22T10:58:06.250Z,9.35
2023-02-22T11:01:27.385Z,9.27
2023-02-22T11:04:49.875Z,9.67
2023-02-22T11:07:54.580Z,9.57
2023-02-22T11:11:05.023Z,9.70
2023-02-22T11:14:10.881Z,9.70
2023-02-22T11:17:28.089Z,9.73
2023-02-22T11:20:38.635Z,9.84
2023-02-22T11:23:45.171Z,10.07
2023-02-22T11:26:56.385Z,9.81
2023-02-22T11:30:29.202Z,10.07
2023-02-22T11:33:33.236Z,10.34
2023-02-22T11:36:44.159Z,10.27
2023-02-22T11:39:48.187Z,10.56
2023-02-22T11:43:12.437Z,10.78
2023-02-22T11:46:21.452Z,10.89
2023-02-22T11:49:35.278Z,10.53
2023-02-22T11:52:50.854Z,10.69
2023-02-22T11:56:14.832Z,10.71
2023-02-22T11:59:36.659Z,11.06
2023-02-22T12:03:40.506Z,10.70
2023-02-22T12:06:58.202Z,10.98
2023-02-22T12:10:19.494Z,10.86
2023-02-22T12:13:37.789Z,10.78
2023-02-22T12:17:07.308Z,10.92
2023-02-22T12:20:24.848Z,10.81
2023-02-22T12:23:44.973Z,10.97
2023-02-22T12:26:55.396Z,11.14
2023-02-22T12:30:06.514Z,10.98
2023-02-22T12:33:20.229Z,11.11
2023-02-22T12:36:35.607Z,10.95
2023-02-22T12:39:56.568Z,10.96
2023-02-22T12:43:07.479Z,11.24
2023-02-22T12:46:19.370Z,10.89
2023-02-22T12:49:36.007Z,10.75
2023-02-22T12:52:51.608Z,10.98
2023-02-22T12:56:06.307Z,11.10
2023-02-22T12:59:21.845Z,11.01
2023-02-22T13:02:36.665Z,10.86
2023-02-22T13:05:43.342Z,10.99
2023-02-22T13:09:07.027Z,10.84
2023-02-22T13:12:19.949Z,10.85
2023-02-22T13:15:34.128Z,11.08
2023-02-22T13:18:49.073Z,11.07
2023-02-22T13:22:04.240Z,11.02
2023-02-22T13:25:16.216Z,11.04
2023-02-22T13:28:33.059Z,10.94
2023-02-22T13:32:02.798Z,11.08
2023-02-22T13:35:56.503Z,11.18
2023-02-22T13:39:32.631Z,11.04
2023-02-22T13:43:05.677Z,11.16
2023-02-22T13:46:47.703Z,10.93
2023-02-22T13:50:53.896Z,10.80
2023-02-22T13:54:05.908Z,10.95
2023-02-22T13:57:24.925Z,10.89
2023-02-22T14:00:47.494Z,11.20
2023-02-22T14:03:51.328Z,10.99
2023-02-22T14:06:55.648Z,11.07
2023-02-22T14:10:01.860Z,11.13
2023-02-22T14:13:10.147Z,11.32
2023-02-22T14:16:25.746Z,11.09
2023-02-22T14:19:29.715Z,11.06
2023-02-22T14:22:34.556Z,11.06
2023-02-22T14:25:43.048Z,11.01
2023-02-22T14:28:59.467Z,11.04
2023-02-22T14:32:10.725Z,11.04
2023-02-22T14:35:27.350Z,10.92
2023-02-22T14:38:32.677Z,11.12
2023-02-22T14:41:41.854Z,10.94
2023-02-22T14:45:01.102Z,10.92
2023-02-22T14:48:20.484Z,10.97
2023-02-22T14:51:29.882Z,10.93
2023-02-22T14:54:42.336Z,10.98
2023-02-22T14:58:01.619Z,11.02
2023-02-22T15:01:33.851Z,10.92
2023-02-22T15:04:44.211Z,10.85
2023-02-22T15:07:58.137Z,10.88
2023-02-22T15:11:03.678Z,10.85
2023-02-22T15:14:26.153Z,10.73
2023-02-22T15:17:32.065Z,10.78
2023-02-22T15:20:38.666Z,10.79
2023-02-22T15:23:47.105Z,10.62
2023-02-22T15:27:01.341Z,10.64
2023-02-22T15:30:16.677Z,10.61
2023-02-22T15:33:24.774Z,10.54
2023-02-22T15:36:31.906Z,10.44
2023-02-22T15:39:43.895Z,10.44
2023-02-22T15:42:53.159Z,10.40
2023-02-22T15:45:57.576Z,10.30
2023-02-22T15:49:24.563Z,10.33
2023-02-22T15:52:29.273Z,10.27
2023-02-22T15:55:38.286Z,10.21
2023-02-22T15:58:43.532Z,10.17
2023-02-22T16:01:53.240Z,10.16
2023-02-22T16:05:06.608Z,10.12
2023-02-22T16:08:19.080Z,10.23
2023-02-22T16:11:30.177Z,10.04
2023-02-22T16:14:45.025Z,9.98
2023-02-22T16:18:01.522Z,9.92
2023-02-22T16:21:13.273Z,9.86
2023-02-22T16:24:28.214Z,9.82
2023-02-22T16:27:47.534Z,9.77
2023-02-22T16:30:59.299Z,9.79
2023-02-22T16:34:05.312Z,9.73
2023-02-22T16:37:23.438Z,9.63
2023-02-22T16:40:34.558Z,9.58
2023-02-22T16:43:38.884Z,9.54
2023-02-22T16:46:43.110Z,9.51
2023-02-22T16:49:49.091Z,9.48
2023-02-22T16:52:58.808Z,9.43
2023-02-22T16:56:06.875Z,9.36
2023-02-22T16:59:16.519Z,9.32
2023-02-22T17:02:22.764Z,9.31
2023-02-22T17:05:26.665Z,9.27
2023-02-22T17:08:32.640Z,9.24
2023-02-22T17:11:37.680Z,9.19
2023-02-22T17:14:42.219Z,9.11
2023-02-22T17:17:46.067Z,9.08
2023-02-22T17:20:51.146Z,9.02
2023-02-22T17:23:56.265Z,9.01
2023-02-22T17:27:00.098Z,8.96
2023-02-22T17:30:04.901Z,8.91
2023-02-22T17:33:10.310Z,8.87
2023-02-22T17:36:14.165Z,8.85
2023-02-22T17:39:19.420Z,8.81
2023-02-22T17:42:23.187Z,8.78
2023-02-22T17:45:27.492Z,8.75
2023-02-22T17:48:32.533Z,8.72
2023-02-22T17:51:38.360Z,8.68
2023-02-22T17:54:43.823Z,8.63
2023-02-22T17:57:49.471Z,8.59
2023-02-22T18:00:59.371Z,8.58
2023-02-22T18:04:05.461Z,8.56
2023-02-22T18:07:09.160Z,8.56
2023-02-22T18:10:15.391Z,8.55
2023-02-22T18:13:19.404Z,8.52
2023-02-22T18:16:25.648Z,8.54
2023-02-22T18:19:29.770Z,8.52
2023-02-22T18:22:34.088Z,8.47
2023-02-22T18:25:41.613Z,8.45
2023-02-22T18:28:48.893Z,8.43
2023-02-22T18:31:54.474Z,8.43
2023-02-22T18:34:58.399Z,8.40
2023-02-22T18:38:02.460Z,8.38
2023-02-22T18:41:10.039Z,8.36
2023-02-22T18:44:14.002Z,8.34
2023-02-22T18:47:25.373Z,8.31
2023-02-22T18:50:30.021Z,8.30
2023-02-22T18:53:34.471Z,8.27
2023-02-22T18:56:40.739Z,8.26
2023-02-22T18:59:45.222Z,8.26
2023-02-22T19:02:49.384Z,8.26
2023-02-22T19:05:54.315Z,8.23
2023-02-22T19:09:08.003Z,8.20
2023-02-22T19:12:17.277Z,8.21
2023-02-22T19:15:21.532Z,8.21
2023-02-22T19:18:25.908Z,8.22
2023-02-22T19:21:32.740Z,8.19
2023-02-22T19:24:36.683Z,8.20
2023-02-22T19:27:44.569Z,8.19
2023-02-22T19:30:48.656Z,8.19
2023-02-22T19:33:52.421Z,8.16
2023-02-22T19:36:58.453Z,8.14
2023-02-22T19:40:03.771Z,8.14
2023-02-22T19:43:09.197Z,8.11
2023-02-22T19:46:13.506Z,8.07
2023-02-22T19:49:18.063Z,8.01
2023-02-22T19:52:21.921Z,7.97
2023-02-22T19:55:32.291Z,7.96
2023-02-22T19:58:38.975Z,7.90
2023-02-22T20:01:45.319Z,7.86
2023-02-22T20:04:51.421Z,7.83
2023-02-22T20:07:55.381Z,7.80
2023-02-22T20:11:00.045Z,7.76
2023-02-22T20:14:06.772Z,7.73
2023-02-22T20:17:10.640Z,7.69
2023-02-22T20:20:15.169Z,7.69
2023-02-22T20:23:19.562Z,7.66
2023-02-22T20:26:26.965Z,7.65
2023-02-22T20:29:32.543Z,7.61
2023-02-22T20:32:38.114Z,7.58
2023-02-22T20:35:42.047Z,7.58
2023-02-22T20:38:47.140Z,7.50
2023-02-22T20:41:50.956Z,7.45
2023-02-22T20:45:01.979Z,7.42
2023-02-22T20:48:07.070Z,7.39
2023-02-22T20:51:14.474Z,7.37
2023-02-22T20:54:20.221Z,7.37
2023-02-22T20:57:24.069Z,7.27
2023-02-22T21:00:29.220Z,7.21
2023-02-22T21:03:34.776Z,7.15
2023-02-22T21:06:40.424Z,7.06
2023-02-22T21:09:44.749Z,7.01
2023-02-22T21:12:50.140Z,7.01
2023-02-22T21:15:56.841Z,6.95
2023-02-22T21:19:03.974Z,6.87
2023-02-22T21:22:08.871Z,6.79
2023-02-22T21:25:14.169Z,6.74
2023-02-22T21:28:18.111Z,6.65
2023-02-22T21:31:25.809Z,6.58
2023-02-22T21:34:29.951Z,6.51
2023-02-22T21:37:34.626Z,6.44
2023-02-22T21:40:38.365Z,6.39
2023-02-22T21:43:42.838Z,6.29
2023-02-22T21:46:49.953Z,6.25
2023-02-22T21:49:53.783Z,6.24
2023-02-22T21:52:58.004Z,6.23
2023-02-22T21:56:06.278Z,6.15
2023-02-22T21:59:14.847Z,6.07
2023-02-22T22:02:22.089Z,6.10
2023-02-22T22:05:33.561Z,6.10
2023-02-22T22:08:40.821Z,6.03
2023-02-22T22:11:46.202Z,5.99
2023-02-22T22:14:50.645Z,5.95
2023-02-22T22:17:59.514Z,5.90
2023-02-22T22:21:10.802Z,5.92
2023-02-22T22:24:15.279Z,5.89
2023-02-22T22:27:19.089Z,5.83
2023-02-22T22:30:23.725Z,5.88
2023-02-22T22:33:29.377Z,5.77
2023-02-22T22:36:34.481Z,5.77
2023-02-22T22:39:38.654Z,5.72
2023-02-22T22:42:42.674Z,5.74
2023-02-22T22:45:46.497Z,5.70
2023-02-22T22:48:51.821Z,5.71
2023-02-22T22:51:55.541Z,5.61
2023-02-22T22:55:00.757Z,5.65
2023-02-22T22:58:04.998Z,5.66
2023-02-22T23:01:17.910Z,5.64
2023-02-22T23:04:25.561Z,5.69
2023-02-22T23:07:29.427Z,5.71
2023-02-22T23:10:33.810Z,5.72
2023-02-22T23:13:38.132Z,5.68
2023-02-22T23:16:42.881Z,5.69
2023-02-22T23:19:48.636Z,5.70
2023-02-22T23:22:54.679Z,5.74
2023-02-22T23:26:11.787Z,5.76
2023-02-22T23:29:15.716Z,5.75
2023-02-22T23:32:19.562Z,5.73
2023-02-22T23:35:26.018Z,5.70
2023-02-22T23:38:29.973Z,5.73
2023-02-22T23:41:36.532Z,5.74
2023-02-22T23:44:40.658Z,5.71
2023-02-22T23:47:44.549Z,5.73
2023-02-22T23:50:51.409Z,5.73
2023-02-22T23:53:56.802Z,5.76
2023-02-22T23:57:02.517Z,5.75
